sensor_id;sensor_type;location;lat;lon;timestamp;pressure;altitude;pressure_sealevel;temperature;humidity
11971;BME280;6045;42.682;23.294;2024-02-26T00:00:11;94200.88;;;10.47;79.16
11971;BME280;6045;42.682;23.294;2024-02-26T00:02:38;94205.97;;;10.49;79.00
11971;BME280;6045;42.682;23.294;2024-02-26T00:05:07;94194.00;;;10.51;79.38
11971;BME280;6045;42.682;23.294;2024-02-26T00:07:34;94199.91;;;10.53;79.33
11971;BME280;6045;42.682;23.294;2024-02-26T00:10:02;94193.53;;;10.54;79.04
11971;BME280;6045;42.682;23.294;2024-02-26T00:12:29;94195.38;;;10.54;79.20
11971;BME280;6045;42.682;23.294;2024-02-26T00:14:56;94190.13;;;10.59;79.13
11971;BME280;6045;42.682;23.294;2024-02-26T00:17:23;94193.06;;;10.57;78.98
11971;BME280;6045;42.682;23.294;2024-02-26T00:19:51;94193.44;;;10.49;79.22
11971;BME280;6045;42.682;23.294;2024-02-26T00:22:19;94191.63;;;10.38;80.19
11971;BME280;6045;42.682;23.294;2024-02-26T00:24:47;94193.53;;;10.26;80.84
11971;BME280;6045;42.682;23.294;2024-02-26T00:27:14;94196.09;;;10.21;81.42
11971;BME280;6045;42.682;23.294;2024-02-26T00:29:41;94168.34;;;10.22;81.58
11971;BME280;6045;42.682;23.294;2024-02-26T00:32:08;94188.09;;;10.21;82.15
11971;BME280;6045;42.682;23.294;2024-02-26T00:34:35;94177.41;;;10.21;81.90
11971;BME280;6045;42.682;23.294;2024-02-26T00:37:03;94174.84;;;10.26;82.18
11971;BME280;6045;42.682;23.294;2024-02-26T00:39:31;94168.94;;;10.24;81.92
11971;BME280;6045;42.682;23.294;2024-02-26T00:41:58;94165.91;;;10.20;82.47
11971;BME280;6045;42.682;23.294;2024-02-26T00:44:25;94160.91;;;10.24;82.51
11971;BME280;6045;42.682;23.294;2024-02-26T00:46:52;94157.84;;;10.32;82.35
11971;BME280;6045;42.682;23.294;2024-02-26T00:49:19;94154.78;;;10.40;81.93
11971;BME280;6045;42.682;23.294;2024-02-26T00:51:46;94157.56;;;10.45;81.51
11971;BME280;6045;42.682;23.294;2024-02-26T00:54:13;94158.94;;;10.48;80.76
11971;BME280;6045;42.682;23.294;2024-02-26T00:56:41;94154.91;;;10.45;81.02
11971;BME280;6045;42.682;23.294;2024-02-26T00:59:08;94157.06;;;10.48;80.85
11971;BME280;6045;42.682;23.294;2024-02-26T01:01:35;94151.25;;;10.51;80.63
11971;BME280;6045;42.682;23.294;2024-02-26T01:04:02;94147.19;;;10.49;80.90
11971;BME280;6045;42.682;23.294;2024-02-26T01:06:29;94155.31;;;10.54;80.82
11971;BME280;6045;42.682;23.294;2024-02-26T01:08:56;94148.34;;;10.53;80.65
11971;BME280;6045;42.682;23.294;2024-02-26T01:11:26;94147.03;;;10.55;80.82
11971;BME280;6045;42.682;23.294;2024-02-26T01:13:54;94145.91;;;10.51;80.92
11971;BME280;6045;42.682;23.294;2024-02-26T01:16:22;94151.34;;;10.56;80.52
11971;BME280;6045;42.682;23.294;2024-02-26T01:18:49;94150.63;;;10.61;80.40
11971;BME280;6045;42.682;23.294;2024-02-26T01:21:16;94141.88;;;10.65;80.46
11971;BME280;6045;42.682;23.294;2024-02-26T01:23:43;94145.91;;;10.68;80.41
11971;BME280;6045;42.682;23.294;2024-02-26T01:26:10;94143.00;;;10.69;80.32
11971;BME280;6045;42.682;23.294;2024-02-26T01:28:37;94152.66;;;10.70;79.95
11971;BME280;6045;42.682;23.294;2024-02-26T01:31:05;94148.34;;;10.69;80.02
11971;BME280;6045;42.682;23.294;2024-02-26T01:33:34;94137.91;;;10.68;80.15
11971;BME280;6045;42.682;23.294;2024-02-26T01:36:04;94142.53;;;10.72;79.87
11971;BME280;6045;42.682;23.294;2024-02-26T01:38:31;94131.84;;;10.72;79.54
11971;BME280;6045;42.682;23.294;2024-02-26T01:40:58;94130.22;;;10.71;79.51
11971;BME280;6045;42.682;23.294;2024-02-26T01:43:25;94137.19;;;10.72;79.30
11971;BME280;6045;42.682;23.294;2024-02-26T01:45:52;94139.63;;;10.74;79.14
11971;BME280;6045;42.682;23.294;2024-02-26T01:48:20;94133.13;;;10.70;79.33
11971;BME280;6045;42.682;23.294;2024-02-26T01:50:47;94131.28;;;10.70;79.19
11971;BME280;6045;42.682;23.294;2024-02-26T01:53:14;94126.97;;;10.69;79.15
11971;BME280;6045;42.682;23.294;2024-02-26T01:55:46;94131.84;;;10.72;79.06
11971;BME280;6045;42.682;23.294;2024-02-26T01:58:14;94133.69;;;10.72;79.27
11971;BME280;6045;42.682;23.294;2024-02-26T02:00:41;94127.31;;;10.73;79.19
11971;BME280;6045;42.682;23.294;2024-02-26T02:03:08;94129.72;;;10.74;78.97
11971;BME280;6045;42.682;23.294;2024-02-26T02:05:37;94133.94;;;10.70;79.10
11971;BME280;6045;42.682;23.294;2024-02-26T02:08:07;94125.03;;;10.65;79.47
11971;BME280;6045;42.682;23.294;2024-02-26T02:10:34;94117.34;;;10.68;79.54
11971;BME280;6045;42.682;23.294;2024-02-26T02:13:02;94134.75;;;10.71;79.55
11971;BME280;6045;42.682;23.294;2024-02-26T02:15:28;94124.88;;;10.71;79.65
11971;BME280;6045;42.682;23.294;2024-02-26T02:17:55;94123.97;;;10.66;80.19
11971;BME280;6045;42.682;23.294;2024-02-26T02:20:26;94126.72;;;10.54;80.77
11971;BME280;6045;42.682;23.294;2024-02-26T02:22:54;94125.47;;;10.28;81.67
11971;BME280;6045;42.682;23.294;2024-02-26T02:25:20;94127.69;;;10.20;81.88
11971;BME280;6045;42.682;23.294;2024-02-26T02:27:47;94130.25;;;10.26;82.22
11971;BME280;6045;42.682;23.294;2024-02-26T02:30:14;94128.97;;;10.29;82.34
11971;BME280;6045;42.682;23.294;2024-02-26T02:32:42;94121.00;;;10.34;82.50
11971;BME280;6045;42.682;23.294;2024-02-26T02:35:09;94115.28;;;10.42;82.34
11971;BME280;6045;42.682;23.294;2024-02-26T02:37:37;94120.00;;;10.52;82.08
11971;BME280;6045;42.682;23.294;2024-02-26T02:40:05;94117.25;;;10.47;81.67
11971;BME280;6045;42.682;23.294;2024-02-26T02:42:33;94132.22;;;10.48;81.84
11971;BME280;6045;42.682;23.294;2024-02-26T02:44:59;94123.25;;;10.54;81.81
11971;BME280;6045;42.682;23.294;2024-02-26T02:47:26;94121.69;;;10.58;82.00
11971;BME280;6045;42.682;23.294;2024-02-26T02:49:53;94125.19;;;10.58;81.62
11971;BME280;6045;42.682;23.294;2024-02-26T02:52:20;94132.25;;;10.64;82.13
11971;BME280;6045;42.682;23.294;2024-02-26T02:54:49;94139.75;;;10.67;82.98
11971;BME280;6045;42.682;23.294;2024-02-26T02:57:15;94144.44;;;10.60;83.46
11971;BME280;6045;42.682;23.294;2024-02-26T02:59:43;94137.69;;;10.41;83.15
11971;BME280;6045;42.682;23.294;2024-02-26T03:02:10;94124.03;;;10.38;84.55
11971;BME280;6045;42.682;23.294;2024-02-26T03:04:37;94133.44;;;10.40;85.69
11971;BME280;6045;42.682;23.294;2024-02-26T03:07:04;94136.75;;;10.47;85.18
11971;BME280;6045;42.682;23.294;2024-02-26T03:09:31;94134.28;;;10.57;83.89
11971;BME280;6045;42.682;23.294;2024-02-26T03:11:59;94130.97;;;10.67;82.63
11971;BME280;6045;42.682;23.294;2024-02-26T03:14:26;94139.13;;;10.77;82.14
11971;BME280;6045;42.682;23.294;2024-02-26T03:16:53;94138.91;;;10.78;82.13
11971;BME280;6045;42.682;23.294;2024-02-26T03:19:20;94135.25;;;10.84;81.92
11971;BME280;6045;42.682;23.294;2024-02-26T03:21:47;94140.03;;;10.82;81.83
11971;BME280;6045;42.682;23.294;2024-02-26T03:24:14;94127.78;;;10.86;81.30
11971;BME280;6045;42.682;23.294;2024-02-26T03:26:41;94125.66;;;10.88;81.82
11971;BME280;6045;42.682;23.294;2024-02-26T03:29:10;94120.88;;;10.90;81.37
11971;BME280;6045;42.682;23.294;2024-02-26T03:31:37;94107.84;;;10.94;80.90
11971;BME280;6045;42.682;23.294;2024-02-26T03:34:04;94111.34;;;10.94;80.81
11971;BME280;6045;42.682;23.294;2024-02-26T03:36:30;94110.28;;;10.95;80.84
11971;BME280;6045;42.682;23.294;2024-02-26T03:39:03;94110.84;;;10.97;80.80
11971;BME280;6045;42.682;23.294;2024-02-26T03:58:53;94109.50;;;10.78;81.61
11971;BME280;6045;42.682;23.294;2024-02-26T04:01:20;94105.91;;;10.73;82.51
11971;BME280;6045;42.682;23.294;2024-02-26T04:07:33;94108.19;;;10.64;82.05
11971;BME280;6045;42.682;23.294;2024-02-26T04:13:30;94102.03;;;10.64;83.49
11971;BME280;6045;42.682;23.294;2024-02-26T04:15:58;94106.56;;;10.63;83.01
11971;BME280;6045;42.682;23.294;2024-02-26T04:18:29;94097.16;;;10.61;83.41
11971;BME280;6045;42.682;23.294;2024-02-26T04:21:07;94088.25;;;10.55;83.90
11971;BME280;6045;42.682;23.294;2024-02-26T04:23:48;94087.53;;;10.26;85.52
11971;BME280;6045;42.682;23.294;2024-02-26T04:36:41;94091.09;;;10.65;83.46
11971;BME280;6045;42.682;23.294;2024-02-26T04:50:06;94093.28;;;10.68;83.11
11971;BME280;6045;42.682;23.294;2024-02-26T04:52:36;94101.56;;;10.67;83.60
11971;BME280;6045;42.682;23.294;2024-02-26T04:55:04;94105.03;;;10.67;83.21
11971;BME280;6045;42.682;23.294;2024-02-26T04:57:33;94114.91;;;10.67;83.09
11971;BME280;6045;42.682;23.294;2024-02-26T05:00:00;94112.38;;;10.60;82.90
11971;BME280;6045;42.682;23.294;2024-02-26T05:02:30;94105.25;;;10.49;83.77
11971;BME280;6045;42.682;23.294;2024-02-26T05:08:59;94118.16;;;10.52;83.73
11971;BME280;6045;42.682;23.294;2024-02-26T05:11:26;94129.25;;;10.61;84.23
11971;BME280;6045;42.682;23.294;2024-02-26T05:20:47;94140.00;;;11.32;93.97
11971;BME280;6045;42.682;23.294;2024-02-26T05:26:48;94153.59;;;11.31;84.96
11971;BME280;6045;42.682;23.294;2024-02-26T05:29:16;94142.25;;;11.62;90.82
11971;BME280;6045;42.682;23.294;2024-02-26T05:31:43;94144.84;;;11.74;88.30
11971;BME280;6045;42.682;23.294;2024-02-26T05:34:10;94152.69;;;11.80;86.28
11971;BME280;6045;42.682;23.294;2024-02-26T05:36:58;94159.63;;;12.19;94.68
11971;BME280;6045;42.682;23.294;2024-02-26T05:42:52;94153.81;;;12.81;89.23
11971;BME280;6045;42.682;23.294;2024-02-26T05:45:19;94160.75;;;12.77;81.88
11971;BME280;6045;42.682;23.294;2024-02-26T05:54:32;94168.13;;;12.38;78.34
11971;BME280;6045;42.682;23.294;2024-02-26T05:56:59;94165.38;;;12.55;85.11
11971;BME280;6045;42.682;23.294;2024-02-26T05:59:27;94163.13;;;12.47;81.59
11971;BME280;6045;42.682;23.294;2024-02-26T06:01:55;94170.25;;;12.36;78.53
11971;BME280;6045;42.682;23.294;2024-02-26T06:04:22;94163.53;;;12.33;80.13
11971;BME280;6045;42.682;23.294;2024-02-26T06:06:49;94175.16;;;12.17;80.17
11971;BME280;6045;42.682;23.294;2024-02-26T06:09:16;94179.19;;;11.98;81.22
11971;BME280;6045;42.682;23.294;2024-02-26T06:11:43;94179.25;;;11.82;82.13
11971;BME280;6045;42.682;23.294;2024-02-26T06:14:13;94171.63;;;11.74;82.35
11971;BME280;6045;42.682;23.294;2024-02-26T06:16:53;94181.19;;;11.86;82.50
11971;BME280;6045;42.682;23.294;2024-02-26T06:19:34;94175.38;;;11.94;82.99
11971;BME280;6045;42.682;23.294;2024-02-26T06:22:00;94181.31;;;11.96;83.09
11971;BME280;6045;42.682;23.294;2024-02-26T06:24:27;94175.50;;;12.04;80.55
11971;BME280;6045;42.682;23.294;2024-02-26T06:26:57;94181.28;;;12.18;83.14
11971;BME280;6045;42.682;23.294;2024-02-26T06:29:52;94173.25;;;12.18;79.40
11971;BME280;6045;42.682;23.294;2024-02-26T06:49:33;94181.03;;;11.59;82.01
11971;BME280;6045;42.682;23.294;2024-02-26T07:18:34;94202.94;;;11.73;76.67
11971;BME280;6045;42.682;23.294;2024-02-26T07:24:31;94197.81;;;11.88;75.95
11971;BME280;6045;42.682;23.294;2024-02-26T07:47:23;94199.16;;;11.69;77.77
11971;BME280;6045;42.682;23.294;2024-02-26T07:49:50;94202.22;;;11.61;77.76
11971;BME280;6045;42.682;23.294;2024-02-26T07:52:33;94198.31;;;11.68;78.61
11971;BME280;6045;42.682;23.294;2024-02-26T07:55:09;94202.16;;;11.94;78.07
11971;BME280;6045;42.682;23.294;2024-02-26T07:57:49;94194.94;;;12.16;78.18
11971;BME280;6045;42.682;23.294;2024-02-26T09:01:58;94180.06;;;13.79;72.22
11971;BME280;6045;42.682;23.294;2024-02-26T09:04:25;94176.09;;;13.87;72.52
11971;BME280;6045;42.682;23.294;2024-02-26T09:06:53;94173.06;;;13.78;71.49
11971;BME280;6045;42.682;23.294;2024-02-26T09:09:20;94164.00;;;13.89;72.19
11971;BME280;6045;42.682;23.294;2024-02-26T09:14:50;94172.44;;;13.61;67.70
11971;BME280;6045;42.682;23.294;2024-02-26T09:17:19;94166.50;;;13.59;67.73
11971;BME280;6045;42.682;23.294;2024-02-26T09:19:49;94172.19;;;13.62;67.73
11971;BME280;6045;42.682;23.294;2024-02-26T09:23:06;94165.28;;;13.77;68.53
11971;BME280;6045;42.682;23.294;2024-02-26T09:25:33;94167.56;;;14.05;68.00
11971;BME280;6045;42.682;23.294;2024-02-26T09:28:01;94169.25;;;14.21;67.60
11971;BME280;6045;42.682;23.294;2024-02-26T09:30:28;94170.91;;;14.27;66.44
11971;BME280;6045;42.682;23.294;2024-02-26T09:51:32;94145.25;;;14.91;61.35
11971;BME280;6045;42.682;23.294;2024-02-26T10:36:18;94114.53;;;14.52;60.48
11971;BME280;6045;42.682;23.294;2024-02-26T10:39:07;94103.78;;;14.62;60.48
11971;BME280;6045;42.682;23.294;2024-02-26T11:01:47;94080.13;;;14.59;59.97
11971;BME280;6045;42.682;23.294;2024-02-26T11:04:16;94085.50;;;14.64;59.31
11971;BME280;6045;42.682;23.294;2024-02-26T11:06:43;94079.31;;;14.64;59.81
11971;BME280;6045;42.682;23.294;2024-02-26T11:09:14;94075.81;;;14.68;58.61
11971;BME280;6045;42.682;23.294;2024-02-26T11:11:41;94082.50;;;14.56;59.47
11971;BME280;6045;42.682;23.294;2024-02-26T11:14:24;94084.41;;;14.65;59.38
11971;BME280;6045;42.682;23.294;2024-02-26T11:17:02;94075.28;;;14.76;59.30
11971;BME280;6045;42.682;23.294;2024-02-26T11:19:36;94078.53;;;14.83;59.21
11971;BME280;6045;42.682;23.294;2024-02-26T11:22:09;94080.41;;;14.88;59.10
11971;BME280;6045;42.682;23.294;2024-02-26T11:24:36;94085.25;;;14.76;59.29
11971;BME280;6045;42.682;23.294;2024-02-26T11:27:09;94080.41;;;14.93;58.91
11971;BME280;6045;42.682;23.294;2024-02-26T11:29:42;94077.44;;;14.74;57.93
11971;BME280;6045;42.682;23.294;2024-02-26T11:34:54;94073.41;;;14.72;58.53
11971;BME280;6045;42.682;23.294;2024-02-26T11:37:21;94066.13;;;14.77;58.82
11971;BME280;6045;42.682;23.294;2024-02-26T11:39:51;94068.28;;;14.80;57.86
11971;BME280;6045;42.682;23.294;2024-02-26T11:42:23;94065.88;;;14.74;58.62
11971;BME280;6045;42.682;23.294;2024-02-26T11:48:20;94062.91;;;14.70;58.12
11971;BME280;6045;42.682;23.294;2024-02-26T11:50:49;94052.44;;;14.79;58.83
11971;BME280;6045;42.682;23.294;2024-02-26T11:53:26;94062.09;;;14.85;58.20
11971;BME280;6045;42.682;23.294;2024-02-26T11:59:00;94054.28;;;14.63;56.90
11971;BME280;6045;42.682;23.294;2024-02-26T12:01:42;94060.22;;;14.85;56.57
11971;BME280;6045;42.682;23.294;2024-02-26T12:07:42;94060.72;;;15.13;55.71
11971;BME280;6045;42.682;23.294;2024-02-26T12:10:25;94057.78;;;15.14;56.31
11971;BME280;6045;42.682;23.294;2024-02-26T12:15:46;94057.22;;;15.22;55.30
11971;BME280;6045;42.682;23.294;2024-02-26T12:18:24;94063.94;;;15.35;55.51
11971;BME280;6045;42.682;23.294;2024-02-26T12:20:58;94058.03;;;15.23;55.21
11971;BME280;6045;42.682;23.294;2024-02-26T12:23:29;94066.91;;;15.13;54.68
11971;BME280;6045;42.682;23.294;2024-02-26T12:25:58;94058.84;;;15.18;55.34
11971;BME280;6045;42.682;23.294;2024-02-26T12:28:27;94065.53;;;15.41;54.42
11971;BME280;6045;42.682;23.294;2024-02-26T12:30:54;94065.28;;;15.47;53.88
11971;BME280;6045;42.682;23.294;2024-02-26T13:05:27;94060.31;;;16.77;48.87
11971;BME280;6045;42.682;23.294;2024-02-26T13:07:55;94060.84;;;16.79;49.43
11971;BME280;6045;42.682;23.294;2024-02-26T13:10:24;94057.25;;;16.55;49.21
11971;BME280;6045;42.682;23.294;2024-02-26T13:12:51;94054.31;;;16.52;50.11
11971;BME280;6045;42.682;23.294;2024-02-26T13:18:27;94053.44;;;16.61;51.46
11971;BME280;6045;42.682;23.294;2024-02-26T13:21:12;94060.31;;;16.38;50.30
11971;BME280;6045;42.682;23.294;2024-02-26T13:23:39;94061.44;;;16.27;50.61
11971;BME280;6045;42.682;23.294;2024-02-26T13:26:07;94062.88;;;16.10;50.28
11971;BME280;6045;42.682;23.294;2024-02-26T13:28:34;94053.97;;;16.09;51.21
11971;BME280;6045;42.682;23.294;2024-02-26T13:31:01;94061.81;;;16.11;50.72
11971;BME280;6045;42.682;23.294;2024-02-26T13:40:22;94066.41;;;16.05;50.14
11971;BME280;6045;42.682;23.294;2024-02-26T13:42:48;94068.28;;;16.10;50.37
11971;BME280;6045;42.682;23.294;2024-02-26T13:45:17;94072.84;;;16.14;49.96
11971;BME280;6045;42.682;23.294;2024-02-26T13:47:44;94073.44;;;16.01;49.59
11971;BME280;6045;42.682;23.294;2024-02-26T13:50:11;94077.22;;;15.95;50.16
11971;BME280;6045;42.682;23.294;2024-02-26T13:52:38;94076.22;;;15.81;50.07
11971;BME280;6045;42.682;23.294;2024-02-26T13:55:06;94078.66;;;15.83;49.72
11971;BME280;6045;42.682;23.294;2024-02-26T13:57:35;94068.66;;;15.78;50.17
11971;BME280;6045;42.682;23.294;2024-02-26T14:00:22;94075.91;;;15.88;49.55
11971;BME280;6045;42.682;23.294;2024-02-26T14:03:03;94079.44;;;15.78;49.52
11971;BME280;6045;42.682;23.294;2024-02-26T14:05:31;94073.00;;;15.74;49.87
11971;BME280;6045;42.682;23.294;2024-02-26T14:07:58;94078.13;;;15.76;49.57
11971;BME280;6045;42.682;23.294;2024-02-26T14:10:25;94083.47;;;15.86;49.62
11971;BME280;6045;42.682;23.294;2024-02-26T14:12:54;94072.66;;;15.96;49.73
11971;BME280;6045;42.682;23.294;2024-02-26T14:17:45;94080.53;;;15.87;48.90
11971;BME280;6045;42.682;23.294;2024-02-26T14:18:43;94074.63;;;15.75;48.52
11971;BME280;6045;42.682;23.294;2024-02-26T14:21:12;94083.75;;;15.84;49.04
11971;BME280;6045;42.682;23.294;2024-02-26T14:26:45;94084.31;;;15.71;49.07
11971;BME280;6045;42.682;23.294;2024-02-26T14:29:14;94076.28;;;15.61;49.14
11971;BME280;6045;42.682;23.294;2024-02-26T14:35:07;94084.38;;;15.36;48.67
11971;BME280;6045;42.682;23.294;2024-02-26T14:37:56;94088.69;;;15.37;49.16
11971;BME280;6045;42.682;23.294;2024-02-26T14:40:29;94088.16;;;15.30;48.87
11971;BME280;6045;42.682;23.294;2024-02-26T14:42:57;94089.53;;;15.27;49.26
11971;BME280;6045;42.682;23.294;2024-02-26T14:45:26;94087.63;;;15.23;49.64
11971;BME280;6045;42.682;23.294;2024-02-26T14:47:54;94089.50;;;15.37;49.16
11971;BME280;6045;42.682;23.294;2024-02-26T14:50:22;94096.78;;;15.37;49.37
11971;BME280;6045;42.682;23.294;2024-02-26T14:52:49;94095.72;;;15.28;49.00
11971;BME280;6045;42.682;23.294;2024-02-26T14:55:16;94096.53;;;15.18;49.78
11971;BME280;6045;42.682;23.294;2024-02-26T14:57:46;94103.78;;;15.23;49.63
11971;BME280;6045;42.682;23.294;2024-02-26T15:00:13;94102.72;;;15.24;48.80
11971;BME280;6045;42.682;23.294;2024-02-26T15:02:44;94110.28;;;15.17;49.81
11971;BME280;6045;42.682;23.294;2024-02-26T15:15:37;94112.13;;;14.96;49.88
11971;BME280;6045;42.682;23.294;2024-02-26T15:16:17;94111.91;;;15.02;49.24
11971;BME280;6045;42.682;23.294;2024-02-26T15:18:47;94106.75;;;14.96;49.78
11971;BME280;6045;42.682;23.294;2024-02-26T15:21:14;94114.59;;;14.97;49.75
11971;BME280;6045;42.682;23.294;2024-02-26T15:23:43;94105.16;;;15.00;48.94
11971;BME280;6045;42.682;23.294;2024-02-26T15:26:10;94113.22;;;15.05;49.30
11971;BME280;6045;42.682;23.294;2024-02-26T15:28:37;94119.44;;;14.95;49.84
11971;BME280;6045;42.682;23.294;2024-02-26T15:31:04;94120.50;;;14.99;49.91
11971;BME280;6045;42.682;23.294;2024-02-26T15:33:31;94123.44;;;14.98;49.50
11971;BME280;6045;42.682;23.294;2024-02-26T15:35:59;94123.19;;;15.04;49.67
11971;BME280;6045;42.682;23.294;2024-02-26T15:38:26;94127.78;;;15.09;49.90
11971;BME280;6045;42.682;23.294;2024-02-26T15:41:10;94126.13;;;15.03;50.06
11971;BME280;6045;42.682;23.294;2024-02-26T15:43:38;94134.22;;;15.03;50.25
11971;BME280;6045;42.682;23.294;2024-02-26T15:46:05;94137.19;;;14.96;49.99
11971;BME280;6045;42.682;23.294;2024-02-26T15:48:32;94132.06;;;14.95;49.37
11971;BME280;6045;42.682;23.294;2024-02-26T15:51:00;94128.00;;;14.82;50.21
11971;BME280;6045;42.682;23.294;2024-02-26T15:53:30;94128.81;;;14.78;49.92
11971;BME280;6045;42.682;23.294;2024-02-26T15:55:57;94135.28;;;14.82;50.10
11971;BME280;6045;42.682;23.294;2024-02-26T15:58:25;94133.41;;;14.82;49.30
11971;BME280;6045;42.682;23.294;2024-02-26T16:00:51;94131.25;;;14.69;50.42
11971;BME280;6045;42.682;23.294;2024-02-26T16:03:19;94143.31;;;14.57;50.45
11971;BME280;6045;42.682;23.294;2024-02-26T16:05:46;94146.53;;;14.59;50.48
11971;BME280;6045;42.682;23.294;2024-02-26T16:08:17;94138.19;;;14.50;51.27
11971;BME280;6045;42.682;23.294;2024-02-26T16:10:46;94144.13;;;14.57;50.27
11971;BME280;6045;42.682;23.294;2024-02-26T16:14:08;94147.06;;;14.61;50.76
11971;BME280;6045;42.682;23.294;2024-02-26T16:17:06;94156.75;;;14.52;51.25
11971;BME280;6045;42.682;23.294;2024-02-26T16:20:28;94167.63;;;14.25;51.05
11971;BME280;6045;42.682;23.294;2024-02-26T16:23:11;94165.22;;;14.23;50.85
11971;BME280;6045;42.682;23.294;2024-02-26T16:25:43;94161.94;;;14.11;51.65
11971;BME280;6045;42.682;23.294;2024-02-26T16:28:44;94169.72;;;14.03;51.15
11971;BME280;6045;42.682;23.294;2024-02-26T16:31:13;94175.66;;;14.10;51.43
11971;BME280;6045;42.682;23.294;2024-02-26T16:33:43;94179.38;;;13.99;51.66
11971;BME280;6045;42.682;23.294;2024-02-26T16:36:28;94185.53;;;13.99;52.75
11971;BME280;6045;42.682;23.294;2024-02-26T16:39:15;94196.00;;;13.96;51.61
11971;BME280;6045;42.682;23.294;2024-02-26T16:42:21;94192.75;;;13.89;51.80
11971;BME280;6045;42.682;23.294;2024-02-26T16:47:42;94204.06;;;13.96;51.82
11971;BME280;6045;42.682;23.294;2024-02-26T16:57:09;94214.22;;;13.84;53.24
11971;BME280;6045;42.682;23.294;2024-02-26T16:59:56;94217.16;;;13.82;53.71
11971;BME280;6045;42.682;23.294;2024-02-26T17:05:44;94220.13;;;13.86;53.01
11971;BME280;6045;42.682;23.294;2024-02-26T17:08:12;94217.19;;;13.92;52.90
11971;BME280;6045;42.682;23.294;2024-02-26T17:32:10;94237.66;;;13.56;52.95
11971;BME280;6045;42.682;23.294;2024-02-26T17:34:52;94239.44;;;13.46;53.51
11971;BME280;6045;42.682;23.294;2024-02-26T17:37:19;94247.19;;;13.37;53.86
11971;BME280;6045;42.682;23.294;2024-02-26T17:43:43;94249.13;;;13.15;55.05
11971;BME280;6045;42.682;23.294;2024-02-26T17:46:15;94254.97;;;13.12;54.97
11971;BME280;6045;42.682;23.294;2024-02-26T17:48:43;94247.81;;;12.96;55.77
11971;BME280;6045;42.682;23.294;2024-02-26T17:51:11;94250.22;;;12.92;56.18
11971;BME280;6045;42.682;23.294;2024-02-26T17:53:38;94254.09;;;12.80;56.80
11971;BME280;6045;42.682;23.294;2024-02-26T17:56:07;94249.63;;;12.85;56.38
11971;BME280;6045;42.682;23.294;2024-02-26T17:58:49;94247.81;;;12.96;56.47
11971;BME280;6045;42.682;23.294;2024-02-26T18:01:19;94250.56;;;13.01;56.15
11971;BME280;6045;42.682;23.294;2024-02-26T18:03:56;94253.56;;;13.04;56.14
11971;BME280;6045;42.682;23.294;2024-02-26T18:06:23;94255.59;;;12.92;56.30
11971;BME280;6045;42.682;23.294;2024-02-26T18:08:56;94252.59;;;12.89;56.16
11971;BME280;6045;42.682;23.294;2024-02-26T18:11:23;94252.84;;;12.87;56.27
11971;BME280;6045;42.682;23.294;2024-02-26T18:13:50;94262.25;;;12.90;56.26
11971;BME280;6045;42.682;23.294;2024-02-26T18:16:19;94262.47;;;12.83;55.88
11971;BME280;6045;42.682;23.294;2024-02-26T18:18:47;94264.88;;;12.85;56.08
11971;BME280;6045;42.682;23.294;2024-02-26T18:21:17;94259.41;;;12.75;56.08
11971;BME280;6045;42.682;23.294;2024-02-26T18:23:52;94265.66;;;12.80;56.55
11971;BME280;6045;42.682;23.294;2024-02-26T18:26:25;94252.53;;;12.84;56.25
11971;BME280;6045;42.682;23.294;2024-02-26T18:29:07;94254.47;;;13.15;64.79
11971;BME280;6045;42.682;23.294;2024-02-26T18:56:08;94281.28;;;12.88;60.21
11971;BME280;6045;42.682;23.294;2024-02-26T19:05:48;94278.47;;;13.00;63.60
11971;BME280;6045;42.682;23.294;2024-02-26T19:08:19;94283.50;;;12.96;59.99
11971;BME280;6045;42.682;23.294;2024-02-26T19:10:59;94294.13;;;12.86;60.62
11971;BME280;6045;42.682;23.294;2024-02-26T19:13:30;94295.44;;;12.84;60.28
11971;BME280;6045;42.682;23.294;2024-02-26T19:15:58;94292.88;;;12.94;60.33
11971;BME280;6045;42.682;23.294;2024-02-26T19:18:25;94293.38;;;12.91;59.86
11971;BME280;6045;42.682;23.294;2024-02-26T19:20:52;94299.69;;;12.80;61.11
11971;BME280;6045;42.682;23.294;2024-02-26T19:23:19;94293.97;;;12.71;61.44
11971;BME280;6045;42.682;23.294;2024-02-26T19:26:07;94302.50;;;12.68;62.34
11971;BME280;6045;42.682;23.294;2024-02-26T19:28:48;94307.25;;;12.61;61.57
11971;BME280;6045;42.682;23.294;2024-02-26T19:31:16;94311.94;;;12.71;60.37
11971;BME280;6045;42.682;23.294;2024-02-26T19:37:29;94320.66;;;12.61;62.01
11971;BME280;6045;42.682;23.294;2024-02-26T19:39:56;94329.88;;;12.70;60.98
11971;BME280;6045;42.682;23.294;2024-02-26T19:42:25;94327.13;;;12.65;60.95
11971;BME280;6045;42.682;23.294;2024-02-26T19:44:55;94328.00;;;12.71;61.07
11971;BME280;6045;42.682;23.294;2024-02-26T19:47:24;94332.81;;;12.69;63.07
11971;BME280;6045;42.682;23.294;2024-02-26T19:49:51;94339.69;;;12.60;62.57
11971;BME280;6045;42.682;23.294;2024-02-26T19:52:21;94340.34;;;12.72;62.22
11971;BME280;6045;42.682;23.294;2024-02-26T19:58:43;94350.97;;;12.62;61.99
11971;BME280;6045;42.682;23.294;2024-02-26T20:07:57;94355.63;;;12.50;62.42
11971;BME280;6045;42.682;23.294;2024-02-26T20:08:41;94352.50;;;12.36;62.66
11971;BME280;6045;42.682;23.294;2024-02-26T20:11:29;94348.94;;;12.30;63.64
11971;BME280;6045;42.682;23.294;2024-02-26T20:13:56;94353.66;;;12.23;63.61
11971;BME280;6045;42.682;23.294;2024-02-26T20:16:23;94341.72;;;12.14;64.08
11971;BME280;6045;42.682;23.294;2024-02-26T20:18:53;94345.63;;;12.23;64.55
11971;BME280;6045;42.682;23.294;2024-02-26T20:21:21;94343.94;;;12.17;65.82
11971;BME280;6045;42.682;23.294;2024-02-26T20:23:51;94357.00;;;12.14;65.17
11971;BME280;6045;42.682;23.294;2024-02-26T20:26:18;94356.41;;;12.28;64.62
11971;BME280;6045;42.682;23.294;2024-02-26T20:28:45;94365.94;;;12.19;64.93
11971;BME280;6045;42.682;23.294;2024-02-26T20:31:11;94361.53;;;12.13;64.93
11971;BME280;6045;42.682;23.294;2024-02-26T20:33:40;94358.84;;;12.13;65.14
11971;BME280;6045;42.682;23.294;2024-02-26T20:36:10;94364.28;;;12.18;65.28